createdAt,value
2023-02-19T00:00:05.216Z,52.63
2023-02-19T00:00:15.242Z,52.47
2023-02-19T00:00:25.255Z,52.40
2023-02-19T00:00:35.234Z,52.36
2023-02-19T00:00:45.238Z,52.34
2023-02-19T00:00:55.264Z,52.39
2023-02-19T00:01:05.224Z,52.45
2023-02-19T00:01:15.217Z,52.60
2023-02-19T00:01:25.224Z,52.68
2023-02-19T00:01:35.222Z,52.58
2023-02-19T00:01:45.227Z,52.43
2023-02-19T00:01:55.240Z,52.37
2023-02-19T00:02:05.207Z,52.32
2023-02-19T00:02:15.216Z,52.39
2023-02-19T00:02:25.233Z,52.50
2023-02-19T00:02:35.212Z,52.60
2023-02-19T00:02:45.212Z,52.67
2023-02-19T00:02:55.216Z,52.77
2023-02-19T00:03:05.220Z,52.79
2023-02-19T00:03:15.272Z,52.86
2023-02-19T00:03:25.229Z,52.82
2023-02-19T00:03:35.290Z,52.80
2023-02-19T00:03:45.228Z,52.75
2023-02-19T00:03:55.221Z,52.72
2023-02-19T00:04:05.220Z,52.66
2023-02-19T00:04:15.214Z,52.60
2023-02-19T00:04:25.211Z,52.61
2023-02-19T00:04:35.248Z,52.69
2023-02-19T00:04:45.250Z,52.94
2023-02-19T00:04:55.300Z,52.98
2023-02-19T00:05:05.273Z,52.97
2023-02-19T00:05:15.247Z,52.95
2023-02-19T00:05:25.217Z,52.94
2023-02-19T00:05:35.220Z,53.05
2023-02-19T00:05:45.232Z,53.16
2023-02-19T00:05:55.244Z,53.28
2023-02-19T00:06:05.238Z,53.25
2023-02-19T00:06:15.243Z,53.36
2023-02-19T00:06:25.255Z,53.51
2023-02-19T00:06:35.230Z,53.61
2023-02-19T00:06:45.275Z,53.72
2023-02-19T00:06:55.276Z,53.77
2023-02-19T00:07:05.259Z,53.84
2023-02-19T00:07:15.291Z,53.76
2023-02-19T00:07:25.306Z,53.84
2023-02-19T00:07:35.284Z,53.87
2023-02-19T00:07:45.303Z,53.82
2023-02-19T00:07:55.328Z,53.76
2023-02-19T00:08:05.318Z,53.68
2023-02-19T00:08:15.345Z,53.47
2023-02-19T00:08:25.347Z,53.28
2023-02-19T00:08:35.433Z,53.20
2023-02-19T00:08:45.383Z,53.27
2023-02-19T00:08:55.347Z,53.55
2023-02-19T00:09:05.372Z,53.78
2023-02-19T00:09:15.435Z,53.96
2023-02-19T00:09:25.391Z,54.01
2023-02-19T00:09:35.398Z,54.02
2023-02-19T00:09:45.421Z,54.02
2023-02-19T00:09:55.419Z,54.01
2023-02-19T00:10:05.423Z,53.99
2023-02-19T00:10:15.455Z,54.12
2023-02-19T00:10:25.435Z,54.30
2023-02-19T00:10:35.435Z,54.59
2023-02-19T00:10:45.445Z,54.76
2023-02-19T00:10:55.459Z,54.79
2023-02-19T00:11:05.485Z,54.70
2023-02-19T00:11:15.492Z,54.69
2023-02-19T00:11:25.507Z,54.62
2023-02-19T00:11:35.508Z,54.59
2023-02-19T00:11:45.509Z,54.60
2023-02-19T00:11:55.516Z,54.66
2023-02-19T00:12:05.517Z,54.57
2023-02-19T00:12:15.538Z,54.43
2023-02-19T00:12:25.549Z,54.39
2023-02-19T00:12:35.520Z,54.29
2023-02-19T00:12:45.571Z,54.29
2023-02-19T00:12:55.559Z,54.19
2023-02-19T00:13:05.568Z,54.13
2023-02-19T00:13:15.589Z,54.12
2023-02-19T00:13:25.605Z,54.09
2023-02-19T00:13:35.637Z,54.08
2023-02-19T00:13:45.621Z,54.02
2023-02-19T00:13:55.622Z,54.17
2023-02-19T00:14:05.620Z,54.39
2023-02-19T00:14:15.641Z,54.76
2023-02-19T00:14:25.632Z,55.13
2023-02-19T00:14:35.625Z,55.31
2023-02-19T00:14:45.685Z,55.39
2023-02-19T00:14:55.649Z,55.40
2023-02-19T00:15:05.650Z,55.40
2023-02-19T00:15:15.693Z,55.35
2023-02-19T00:15:25.785Z,55.26
2023-02-19T00:15:35.684Z,55.18
2023-02-19T00:15:45.728Z,55.00
2023-02-19T00:15:55.780Z,54.92
2023-02-19T00:16:05.771Z,54.86
2023-02-19T00:16:15.754Z,54.79
2023-02-19T00:16:25.741Z,54.75
2023-02-19T00:16:35.757Z,54.63
2023-02-19T00:16:45.758Z,54.53
2023-02-19T00:16:55.794Z,54.42
2023-02-19T00:17:05.753Z,54.35
2023-02-19T00:17:15.806Z,54.24
2023-02-19T00:17:25.789Z,54.19
2023-02-19T00:17:35.805Z,54.16
2023-02-19T00:17:45.817Z,54.19
2023-02-19T00:17:55.810Z,54.16
2023-02-19T00:18:05.812Z,54.13
2023-02-19T00:18:15.836Z,54.10
2023-02-19T00:18:25.815Z,54.17
2023-02-19T00:18:35.897Z,54.30
2023-02-19T00:18:45.871Z,54.40
2023-02-19T00:18:55.860Z,54.46
2023-02-19T00:19:05.853Z,54.66
2023-02-19T00:19:15.904Z,54.89
2023-02-19T00:19:25.890Z,55.04
2023-02-19T00:19:35.885Z,55.15
2023-02-19T00:19:45.889Z,55.29
2023-02-19T00:19:55.938Z,55.44
2023-02-19T00:20:05.912Z,55.54
2023-02-19T00:20:15.949Z,55.64
2023-02-19T00:20:25.926Z,55.66
2023-02-19T00:20:35.944Z,55.62
2023-02-19T00:20:45.962Z,55.49
2023-02-19T00:20:55.945Z,55.46
2023-02-19T00:21:05.961Z,55.59
2023-02-19T00:21:15.990Z,55.70
2023-02-19T00:21:25.990Z,55.81
2023-02-19T00:21:35.972Z,55.93
2023-02-19T00:21:46.023Z,56.29
2023-02-19T00:21:56.020Z,56.57
2023-02-19T00:22:06.015Z,56.82
2023-02-19T00:22:16.029Z,56.92
2023-02-19T00:22:26.023Z,56.79
2023-02-19T00:22:36.035Z,56.58
2023-02-19T00:22:46.063Z,56.26
2023-02-19T00:22:56.051Z,56.09
2023-02-19T00:23:06.059Z,56.00
2023-02-19T00:23:16.112Z,55.85
2023-02-19T00:23:26.102Z,55.76
2023-02-19T00:23:36.136Z,55.63
2023-02-19T00:23:46.112Z,55.52
2023-02-19T00:23:56.122Z,55.36
2023-02-19T00:24:06.123Z,55.32
2023-02-19T00:24:16.136Z,55.19
2023-02-19T00:24:26.151Z,55.13
2023-02-19T00:24:36.135Z,55.10
2023-02-19T00:24:47.840Z,55.00
2023-02-19T00:24:56.158Z,54.91
2023-02-19T00:25:06.159Z,54.79
2023-02-19T00:25:16.159Z,54.71
2023-02-19T00:25:26.152Z,54.89
2023-02-19T00:25:36.162Z,55.25
2023-02-19T00:25:46.165Z,55.50
2023-02-19T00:26:00.984Z,55.73
2023-02-19T00:26:17.554Z,55.99
2023-02-19T00:26:18.734Z,56.28
2023-02-19T00:26:26.153Z,56.27
2023-02-19T00:26:36.171Z,56.49
2023-02-19T00:26:46.157Z,56.70
2023-02-19T00:26:56.144Z,56.78
2023-02-19T00:27:06.191Z,56.61
2023-02-19T00:27:16.144Z,56.43
2023-02-19T00:27:26.162Z,56.26
2023-02-19T00:27:36.146Z,56.18
2023-02-19T00:27:46.146Z,56.02
2023-02-19T00:27:56.156Z,55.95
2023-02-19T00:28:06.172Z,55.85
2023-02-19T00:28:16.166Z,55.84
2023-02-19T00:28:26.167Z,55.80
2023-02-19T00:28:36.155Z,55.81
2023-02-19T00:28:46.222Z,55.82
2023-02-19T00:28:56.123Z,55.79
2023-02-19T00:29:06.137Z,55.74
2023-02-19T00:29:16.139Z,55.62
2023-02-19T00:29:26.121Z,55.57
2023-02-19T00:29:36.154Z,55.56
2023-02-19T00:29:46.141Z,55.58
2023-02-19T00:29:56.135Z,55.61
2023-02-19T00:30:06.173Z,55.85
2023-02-19T00:30:16.183Z,56.03
2023-02-19T00:30:26.198Z,56.33
2023-02-19T00:30:36.133Z,56.37
2023-02-19T00:30:46.160Z,56.30
2023-02-19T00:30:56.181Z,56.09
2023-02-19T00:31:06.195Z,55.99
2023-02-19T00:31:16.215Z,55.98
2023-02-19T00:31:26.246Z,55.95
2023-02-19T00:31:36.238Z,56.11
2023-02-19T00:31:46.356Z,56.43
2023-02-19T00:31:56.262Z,56.52
2023-02-19T00:32:06.193Z,56.52
2023-02-19T00:32:16.163Z,56.45
2023-02-19T00:32:26.125Z,56.33
2023-02-19T00:32:36.148Z,56.36
2023-02-19T00:32:46.149Z,56.41
2023-02-19T00:32:56.119Z,56.47
2023-02-19T00:33:06.131Z,56.49
2023-02-19T00:33:16.143Z,56.45
2023-02-19T00:33:26.123Z,56.46
2023-02-19T00:33:36.131Z,56.38
2023-02-19T00:33:46.149Z,56.39
2023-02-19T00:33:56.182Z,56.47
2023-02-19T00:34:06.124Z,56.45
2023-02-19T00:34:16.110Z,56.33
2023-02-19T00:34:26.123Z,56.19
2023-02-19T00:34:36.139Z,56.13
2023-02-19T00:34:46.122Z,56.17
2023-02-19T00:34:56.113Z,56.18
2023-02-19T00:35:06.132Z,56.23
2023-02-19T00:35:16.095Z,56.24
2023-02-19T00:35:26.129Z,56.53
2023-02-19T00:35:36.121Z,56.76
2023-02-19T00:35:46.109Z,56.94
2023-02-19T00:35:56.137Z,57.14
2023-02-19T00:36:06.123Z,57.20
2023-02-19T00:36:16.108Z,57.29
2023-02-19T00:36:26.121Z,57.27
2023-02-19T00:36:36.290Z,57.32
2023-02-19T00:36:46.109Z,57.31
2023-02-19T00:36:56.117Z,57.55
2023-02-19T00:37:06.125Z,57.62
2023-02-19T00:37:16.120Z,57.68
2023-02-19T00:37:26.142Z,57.44
2023-02-19T00:37:36.125Z,57.37
2023-02-19T00:37:46.120Z,57.26
2023-02-19T00:37:56.133Z,57.08
2023-02-19T00:38:06.111Z,56.99
2023-02-19T00:38:16.126Z,56.97
2023-02-19T00:38:26.138Z,57.14
2023-02-19T00:38:36.142Z,57.29
2023-02-19T00:38:46.156Z,57.43
2023-02-19T00:38:56.150Z,57.47
2023-02-19T00:39:06.244Z,57.35
2023-02-19T00:39:16.196Z,57.21
2023-02-19T00:39:26.198Z,57.10
2023-02-19T00:39:36.184Z,57.09
2023-02-19T00:39:46.209Z,57.08
2023-02-19T00:39:56.225Z,57.05
2023-02-19T00:40:06.221Z,56.99
2023-02-19T00:40:16.230Z,57.05
2023-02-19T00:40:26.245Z,57.05
2023-02-19T00:40:36.234Z,57.12
2023-02-19T00:40:46.232Z,57.15
2023-02-19T00:40:56.254Z,57.12
2023-02-19T00:41:06.239Z,57.11
2023-02-19T00:41:16.240Z,57.19
2023-02-19T00:41:26.313Z,57.28
2023-02-19T00:41:36.257Z,57.37
2023-02-19T00:41:46.344Z,57.54
2023-02-19T00:41:56.328Z,57.75
2023-02-19T00:42:06.296Z,57.83
2023-02-19T00:42:16.300Z,58.15
2023-02-19T00:42:26.325Z,58.52
2023-02-19T00:42:36.332Z,58.48
2023-02-19T00:42:46.323Z,58.57
2023-02-19T00:42:56.360Z,58.62
2023-02-19T00:43:06.350Z,58.79
2023-02-19T00:43:16.373Z,58.88
2023-02-19T00:43:26.387Z,59.05
2023-02-19T00:43:36.369Z,59.29
2023-02-19T00:43:46.396Z,59.45
2023-02-19T00:43:56.424Z,59.49
2023-02-19T00:44:06.489Z,59.58
2023-02-19T00:44:16.404Z,59.61
2023-02-19T00:44:26.441Z,59.43
2023-02-19T00:44:36.435Z,59.26
2023-02-19T00:44:46.423Z,59.09
2023-02-19T00:44:56.467Z,58.90
2023-02-19T00:45:06.442Z,58.92
2023-02-19T00:45:16.453Z,59.00
2023-02-19T00:45:26.502Z,59.25
2023-02-19T00:45:36.479Z,59.38
2023-02-19T00:45:46.496Z,59.39
2023-02-19T00:45:56.540Z,59.22
2023-02-19T00:46:06.495Z,59.06
2023-02-19T00:46:16.546Z,58.90
2023-02-19T00:46:26.602Z,58.68
2023-02-19T00:46:36.681Z,58.55
2023-02-19T00:46:46.545Z,58.41
2023-02-19T00:46:56.560Z,58.34
2023-02-19T00:47:06.551Z,58.31
2023-02-19T00:47:16.581Z,58.36
2023-02-19T00:47:26.573Z,58.36
2023-02-19T00:47:36.574Z,58.33
2023-02-19T00:47:46.596Z,58.29
2023-02-19T00:47:56.613Z,58.28
2023-02-19T00:48:06.602Z,58.21
2023-02-19T00:48:16.606Z,58.16
2023-02-19T00:48:26.637Z,58.05
2023-02-19T00:48:36.635Z,58.01
2023-02-19T00:48:46.653Z,57.90
2023-02-19T00:48:56.664Z,57.87
2023-02-19T00:49:06.713Z,57.91
2023-02-19T00:49:16.680Z,57.91
2023-02-19T00:49:26.679Z,57.85
2023-02-19T00:49:36.678Z,57.86
2023-02-19T00:49:46.677Z,57.88
2023-02-19T00:49:56.711Z,57.93
2023-02-19T00:50:06.700Z,57.93
2023-02-19T00:50:16.717Z,57.91
2023-02-19T00:50:26.740Z,57.90
2023-02-19T00:50:36.730Z,57.99
2023-02-19T00:50:46.745Z,58.06
2023-02-19T00:50:56.761Z,58.11
2023-02-19T00:51:06.766Z,58.41
2023-02-19T00:51:16.759Z,58.59
2023-02-19T00:51:26.782Z,58.56
2023-02-19T00:51:36.790Z,58.51
2023-02-19T00:51:46.781Z,58.54
2023-02-19T00:51:56.812Z,58.46
2023-02-19T00:52:06.803Z,58.39
2023-02-19T00:52:16.795Z,58.24
2023-02-19T00:52:26.824Z,58.15
2023-02-19T00:52:36.836Z,58.10
2023-02-19T00:52:46.857Z,58.23
2023-02-19T00:52:56.879Z,58.68
2023-02-19T00:53:06.854Z,58.92
2023-02-19T00:53:16.863Z,59.09
2023-02-19T00:53:26.874Z,59.19
2023-02-19T00:53:36.894Z,59.11
2023-02-19T00:53:46.902Z,59.07
2023-02-19T00:53:56.890Z,58.97
2023-02-19T00:54:06.965Z,58.80
2023-02-19T00:54:16.902Z,58.62
2023-02-19T00:54:26.952Z,58.45
2023-02-19T00:54:36.935Z,58.32
2023-02-19T00:54:46.935Z,58.21
2023-02-19T00:54:57.324Z,58.12
2023-02-19T00:55:06.963Z,58.12
2023-02-19T00:55:16.955Z,58.09
2023-02-19T00:55:26.947Z,58.11
2023-02-19T00:55:36.957Z,58.38
2023-02-19T00:55:46.946Z,58.77
2023-02-19T00:55:56.965Z,59.02
2023-02-19T00:56:06.944Z,59.11
2023-02-19T00:56:16.956Z,59.10
2023-02-19T00:56:26.948Z,59.09
2023-02-19T00:56:36.931Z,59.19
2023-02-19T00:56:46.927Z,59.22
2023-02-19T00:56:56.929Z,59.29
2023-02-19T00:57:06.967Z,59.28
2023-02-19T00:57:16.941Z,59.26
2023-02-19T00:57:26.986Z,59.17
2023-02-19T00:57:36.948Z,59.04
2023-02-19T00:57:46.945Z,58.88
2023-02-19T00:57:56.951Z,58.68
2023-02-19T00:58:06.939Z,58.63
2023-02-19T00:58:16.939Z,58.55
2023-02-19T00:58:26.942Z,58.46
2023-02-19T00:58:36.928Z,58.35
2023-02-19T00:58:46.942Z,58.31
2023-02-19T00:58:56.939Z,58.28
2023-02-19T00:59:06.933Z,58.25
2023-02-19T00:59:17.028Z,58.22
2023-02-19T00:59:26.945Z,58.00
2023-02-19T00:59:36.942Z,57.88
2023-02-19T00:59:46.923Z,57.93
2023-02-19T00:59:56.923Z,57.97
2023-02-19T01:00:06.939Z,58.27
2023-02-19T01:00:16.941Z,58.51
2023-02-19T01:00:26.932Z,58.48
2023-02-19T01:00:36.937Z,58.40
2023-02-19T01:00:46.938Z,58.24
2023-02-19T01:00:56.930Z,58.17
2023-02-19T01:01:06.948Z,58.14
2023-02-19T01:01:16.964Z,58.13
2023-02-19T01:01:27.023Z,58.11
2023-02-19T01:01:37.008Z,58.00
2023-02-19T01:01:47.009Z,57.91
2023-02-19T01:01:57.001Z,57.86
2023-02-19T01:02:06.985Z,57.81
2023-02-19T01:02:16.989Z,57.79
2023-02-19T01:02:27.022Z,57.81
2023-02-19T01:02:37.027Z,57.88
2023-02-19T01:02:47.008Z,57.89
2023-02-19T01:02:57.034Z,58.06
2023-02-19T01:03:07.044Z,58.21
2023-02-19T01:03:17.055Z,58.22
2023-02-19T01:03:27.062Z,58.81
2023-02-19T01:03:37.060Z,59.21
2023-02-19T01:03:47.057Z,59.47
2023-02-19T01:03:57.059Z,59.69
2023-02-19T01:04:07.125Z,59.81
2023-02-19T01:04:17.133Z,59.85
2023-02-19T01:04:27.130Z,59.66
2023-02-19T01:04:37.135Z,59.47
2023-02-19T01:04:47.152Z,59.35
2023-02-19T01:04:57.178Z,59.25
2023-02-19T01:05:07.133Z,59.11
2023-02-19T01:05:17.139Z,59.12
2023-02-19T01:05:27.158Z,59.38
2023-02-19T01:05:37.156Z,59.57
2023-02-19T01:05:47.157Z,59.79
2023-02-19T01:05:57.211Z,59.99
2023-02-19T01:06:07.191Z,59.90
2023-02-19T01:06:17.196Z,59.72
2023-02-19T01:06:27.230Z,59.42
2023-02-19T01:06:37.296Z,59.18
2023-02-19T01:06:47.211Z,58.99
2023-02-19T01:06:57.233Z,58.75
2023-02-19T01:07:10.034Z,58.65
2023-02-19T01:07:17.253Z,58.64
2023-02-19T01:07:27.228Z,58.63
2023-02-19T01:07:37.238Z,58.59
2023-02-19T01:07:47.220Z,58.89
2023-02-19T01:07:57.222Z,59.16
2023-02-19T01:08:07.237Z,59.35
2023-02-19T01:08:17.248Z,59.56
2023-02-19T01:08:27.223Z,59.80
2023-02-19T01:08:37.207Z,60.06
2023-02-19T01:08:47.204Z,60.28
2023-02-19T01:08:57.226Z,60.32
2023-02-19T01:09:07.221Z,60.43
2023-02-19T01:09:17.289Z,60.35
2023-02-19T01:09:27.194Z,60.40
2023-02-19T01:09:37.216Z,60.52
2023-02-19T01:09:47.225Z,60.66
2023-02-19T01:09:57.235Z,60.65
2023-02-19T01:10:07.209Z,60.56
2023-02-19T01:10:17.260Z,60.45
2023-02-19T01:10:27.228Z,60.31
2023-02-19T01:10:37.217Z,60.33
2023-02-19T01:10:47.209Z,60.32
2023-02-19T01:10:57.204Z,60.27
2023-02-19T01:11:07.228Z,60.19
2023-02-19T01:11:17.227Z,60.02
2023-02-19T01:11:27.190Z,59.84
2023-02-19T01:11:37.252Z,59.67
2023-02-19T01:11:47.214Z,59.74
2023-02-19T01:11:57.195Z,59.84
2023-02-19T01:12:07.213Z,60.08
2023-02-19T01:12:17.226Z,60.32
2023-02-19T01:12:27.217Z,60.40
2023-02-19T01:12:37.216Z,60.43
2023-02-19T01:12:47.209Z,60.41
2023-02-19T01:12:57.205Z,60.43
2023-02-19T01:13:07.229Z,60.36
2023-02-19T01:13:17.209Z,60.20
2023-02-19T01:13:27.198Z,60.15
2023-02-19T01:13:37.204Z,60.15
2023-02-19T01:13:47.217Z,60.06
2023-02-19T01:13:57.205Z,60.07
2023-02-19T01:14:07.221Z,60.14
2023-02-19T01:14:17.217Z,60.14
2023-02-19T01:14:27.274Z,60.14
2023-02-19T01:14:37.224Z,60.16
2023-02-19T01:14:47.228Z,60.25
2023-02-19T01:14:57.210Z,60.28
2023-02-19T01:15:07.202Z,60.17
2023-02-19T01:15:17.195Z,60.24
2023-02-19T01:15:27.189Z,60.17
2023-02-19T01:15:37.206Z,60.13
2023-02-19T01:15:47.240Z,60.28
2023-02-19T01:15:57.212Z,60.55
2023-02-19T01:16:07.261Z,60.72
2023-02-19T01:16:17.255Z,60.76
2023-02-19T01:16:27.210Z,60.64
2023-02-19T01:16:37.200Z,60.46
2023-02-19T01:16:47.193Z,60.19
2023-02-19T01:16:57.180Z,60.15
2023-02-19T01:17:07.182Z,60.08
2023-02-19T01:17:17.199Z,59.96
2023-02-19T01:17:27.197Z,59.87
2023-02-19T01:17:37.198Z,59.93
2023-02-19T01:17:47.207Z,60.01
2023-02-19T01:17:57.216Z,59.97
2023-02-19T01:18:07.194Z,59.95
2023-02-19T01:18:17.207Z,59.83
2023-02-19T01:18:27.231Z,59.76
2023-02-19T01:18:37.176Z,59.71
2023-02-19T01:18:47.186Z,59.65
2023-02-19T01:18:57.202Z,59.58
2023-02-19T01:19:07.180Z,59.44
2023-02-19T01:19:17.197Z,59.30
2023-02-19T01:19:27.200Z,59.25
2023-02-19T01:19:37.246Z,59.22
2023-02-19T01:19:47.186Z,59.29
2023-02-19T01:19:57.195Z,59.30
2023-02-19T01:20:07.190Z,59.26
2023-02-19T01:20:17.206Z,59.29
2023-02-19T01:20:27.183Z,59.32
2023-02-19T01:20:37.195Z,59.50
2023-02-19T01:20:47.175Z,59.60
2023-02-19T01:20:57.178Z,59.75
2023-02-19T01:21:07.347Z,59.88
2023-02-19T01:21:17.193Z,59.99
2023-02-19T01:21:27.214Z,59.98
2023-02-19T01:21:37.167Z,59.88
2023-02-19T01:21:47.177Z,59.84
2023-02-19T01:21:57.167Z,59.93
2023-02-19T01:22:07.173Z,59.84
2023-02-19T01:22:17.202Z,59.69
2023-02-19T01:22:27.175Z,59.56
2023-02-19T01:22:37.174Z,59.39
2023-02-19T01:22:47.184Z,59.23
2023-02-19T01:22:57.167Z,59.16
2023-02-19T01:23:07.165Z,59.19
2023-02-19T01:23:17.187Z,59.12
2023-02-19T01:23:27.167Z,59.21
2023-02-19T01:23:37.178Z,59.26
2023-02-19T01:23:47.228Z,59.38
2023-02-19T01:23:57.177Z,59.40
2023-02-19T01:24:07.168Z,59.35
2023-02-19T01:24:17.194Z,59.29
2023-02-19T01:24:27.177Z,59.29
2023-02-19T01:24:37.180Z,59.24
2023-02-19T01:24:47.227Z,59.14
2023-02-19T01:24:57.175Z,59.01
2023-02-19T01:25:07.173Z,58.90
2023-02-19T01:25:17.160Z,58.84
2023-02-19T01:25:27.168Z,58.98
2023-02-19T01:25:37.168Z,59.11
2023-02-19T01:25:47.188Z,59.18
2023-02-19T01:25:57.176Z,59.21
2023-02-19T01:26:07.175Z,59.21
2023-02-19T01:26:17.184Z,59.31
2023-02-19T01:26:27.175Z,59.36
2023-02-19T01:26:37.157Z,59.29
2023-02-19T01:26:47.153Z,59.23
2023-02-19T01:26:57.142Z,59.19
2023-02-19T01:27:07.139Z,59.31
2023-02-19T01:27:17.151Z,59.50
2023-02-19T01:27:27.149Z,59.59
2023-02-19T01:27:37.142Z,59.73
2023-02-19T01:27:47.174Z,59.92
2023-02-19T01:27:57.170Z,60.09
2023-02-19T01:28:07.164Z,60.20
2023-02-19T01:28:17.178Z,60.28
2023-02-19T01:28:27.196Z,60.23
2023-02-19T01:28:37.211Z,60.26
2023-02-19T01:28:47.223Z,60.15
2023-02-19T01:28:57.206Z,60.02
2023-02-19T01:29:07.208Z,59.93
2023-02-19T01:29:17.236Z,59.85
2023-02-19T01:29:27.242Z,59.80
2023-02-19T01:29:37.230Z,59.72
2023-02-19T01:29:47.350Z,59.60
2023-02-19T01:29:57.271Z,59.50
2023-02-19T01:30:07.301Z,59.41
2023-02-19T01:30:17.308Z,59.24
2023-02-19T01:30:27.352Z,59.16
2023-02-19T01:30:37.301Z,59.12
2023-02-19T01:30:47.333Z,59.02
2023-02-19T01:30:57.339Z,59.00
2023-02-19T01:31:07.512Z,58.96
2023-02-19T01:31:17.426Z,58.94
2023-02-19T01:31:27.468Z,58.93
2023-02-19T01:31:37.359Z,58.94
2023-02-19T01:31:47.507Z,59.33
2023-02-19T01:31:57.434Z,59.56
2023-02-19T01:32:07.435Z,59.66
2023-02-19T01:32:17.333Z,59.66
2023-02-19T01:32:27.336Z,59.61
2023-02-19T01:32:37.329Z,59.71
2023-02-19T01:32:47.328Z,59.72
2023-02-19T01:32:57.339Z,59.70
2023-02-19T01:33:07.327Z,59.63
2023-02-19T01:33:17.340Z,59.64
2023-02-19T01:33:27.325Z,59.77
2023-02-19T01:33:37.321Z,59.78
2023-02-19T01:33:47.333Z,59.73
2023-02-19T01:33:57.340Z,59.60
2023-02-19T01:34:07.325Z,59.53
2023-02-19T01:34:17.342Z,59.38
2023-02-19T01:34:27.329Z,59.31
2023-02-19T01:34:37.340Z,59.28
2023-02-19T01:34:47.428Z,59.14
2023-02-19T01:34:57.346Z,59.08
2023-02-19T01:35:07.375Z,59.12
2023-02-19T01:35:17.398Z,59.21
2023-02-19T01:35:27.387Z,59.19
2023-02-19T01:35:37.397Z,59.16
2023-02-19T01:35:47.418Z,59.11
2023-02-19T01:35:57.407Z,58.96
2023-02-19T01:36:07.402Z,58.98
2023-02-19T01:36:17.417Z,59.09
2023-02-19T01:36:27.442Z,59.11
2023-02-19T01:36:37.431Z,59.14
2023-02-19T01:36:47.450Z,59.14
2023-02-19T01:36:57.444Z,59.36
2023-02-19T01:37:07.456Z,59.57
2023-02-19T01:37:17.499Z,59.67
2023-02-19T01:37:27.513Z,59.69
2023-02-19T01:37:37.491Z,59.70
2023-02-19T01:37:47.508Z,59.58
2023-02-19T01:37:57.512Z,59.52
2023-02-19T01:38:07.508Z,59.37
2023-02-19T01:38:17.549Z,59.32
2023-02-19T01:38:27.537Z,59.30
2023-02-19T01:38:37.531Z,59.30
2023-02-19T01:38:47.539Z,59.29
2023-02-19T01:38:57.577Z,59.28
2023-02-19T01:39:07.559Z,59.21
2023-02-19T01:39:17.600Z,59.30
2023-02-19T01:39:27.576Z,59.32
2023-02-19T01:39:37.591Z,59.35
2023-02-19T01:39:47.686Z,59.32
2023-02-19T01:39:57.614Z,59.36
2023-02-19T01:40:07.598Z,59.37
2023-02-19T01:40:17.632Z,59.49
2023-02-19T01:40:27.621Z,59.52
2023-02-19T01:40:37.627Z,59.53
2023-02-19T01:40:47.639Z,59.38
2023-02-19T01:40:57.672Z,59.30
2023-02-19T01:41:07.772Z,59.19
2023-02-19T01:41:17.682Z,59.30
2023-02-19T01:41:27.677Z,59.42
2023-02-19T01:41:37.692Z,59.63
2023-02-19T01:41:47.704Z,59.94
2023-02-19T01:41:57.706Z,60.06
2023-02-19T01:42:07.737Z,60.15
2023-02-19T01:42:17.765Z,60.09
2023-02-19T01:42:27.748Z,59.97
2023-02-19T01:42:37.748Z,59.88
2023-02-19T01:42:47.752Z,59.80
2023-02-19T01:42:57.753Z,59.74
2023-02-19T01:43:07.781Z,59.68
2023-02-19T01:43:17.802Z,59.72
2023-02-19T01:43:27.788Z,59.70
2023-02-19T01:43:37.779Z,59.63
2023-02-19T01:43:47.800Z,59.61
2023-02-19T01:43:57.820Z,59.52
2023-02-19T01:44:07.901Z,59.40
2023-02-19T01:44:17.829Z,59.25
2023-02-19T01:44:27.836Z,59.20
2023-02-19T01:44:37.841Z,59.08
2023-02-19T01:44:47.937Z,59.10
2023-02-19T01:44:57.857Z,59.08
2023-02-19T01:45:07.856Z,59.08
2023-02-19T01:45:17.876Z,59.04
2023-02-19T01:45:27.904Z,59.06
2023-02-19T01:45:37.902Z,59.09
2023-02-19T01:45:47.902Z,58.99
2023-02-19T01:45:57.919Z,58.99
2023-02-19T01:46:07.908Z,58.95
2023-02-19T01:46:17.983Z,58.88
2023-02-19T01:46:28.013Z,58.92
2023-02-19T01:46:37.989Z,59.09
2023-02-19T01:46:47.961Z,59.36
2023-02-19T01:46:57.945Z,59.58
2023-02-19T01:47:07.972Z,59.76
2023-02-19T01:47:17.999Z,59.81
2023-02-19T01:47:27.969Z,59.85
2023-02-19T01:47:37.980Z,59.78
2023-02-19T01:47:48.007Z,59.62
2023-02-19T01:47:58.018Z,59.59
2023-02-19T01:48:08.011Z,59.53
2023-02-19T01:48:18.021Z,59.49
2023-02-19T01:48:28.034Z,59.43
2023-02-19T01:48:38.040Z,59.33
2023-02-19T01:48:48.059Z,59.33
2023-02-19T01:48:58.062Z,59.33
2023-02-19T01:49:08.061Z,59.33
2023-02-19T01:49:18.100Z,59.47
2023-02-19T01:49:28.094Z,59.50
2023-02-19T01:49:38.095Z,59.65
2023-02-19T01:49:48.166Z,59.80
2023-02-19T01:49:58.119Z,59.83
2023-02-19T01:50:08.111Z,59.81
2023-02-19T01:50:18.125Z,59.67
2023-02-19T01:50:28.138Z,59.55
2023-02-19T01:50:38.129Z,59.51
2023-02-19T01:50:48.141Z,59.47
2023-02-19T01:50:58.148Z,59.55
2023-02-19T01:51:08.705Z,59.65
2023-02-19T01:51:18.155Z,59.74
2023-02-19T01:51:28.157Z,59.76
2023-02-19T01:51:38.144Z,59.76
2023-02-19T01:51:48.167Z,59.78
2023-02-19T01:51:58.141Z,59.77
2023-02-19T01:52:08.144Z,59.74
2023-02-19T01:52:18.156Z,59.81
2023-02-19T01:52:28.147Z,59.73
2023-02-19T01:52:38.159Z,59.69
2023-02-19T01:52:48.147Z,59.66
2023-02-19T01:52:58.148Z,59.64
2023-02-19T01:53:08.171Z,59.65
2023-02-19T01:53:18.151Z,59.64
2023-02-19T01:53:28.145Z,59.51
2023-02-19T01:53:38.156Z,59.38
2023-02-19T01:53:48.174Z,59.30
2023-02-19T01:53:58.154Z,59.24
2023-02-19T01:54:08.165Z,59.29
2023-02-19T01:54:18.184Z,59.27
2023-02-19T01:54:28.138Z,59.37
2023-02-19T01:54:38.151Z,59.48
2023-02-19T01:54:48.135Z,59.56
2023-02-19T01:54:58.188Z,59.53
2023-02-19T01:55:08.131Z,59.49
2023-02-19T01:55:18.138Z,59.44
2023-02-19T01:55:28.133Z,59.47
2023-02-19T01:55:38.130Z,59.66
2023-02-19T01:55:48.126Z,59.81
2023-02-19T01:55:58.126Z,59.91
2023-02-19T01:56:08.146Z,60.06
2023-02-19T01:56:18.115Z,60.18
2023-02-19T01:56:28.132Z,60.43
2023-02-19T01:56:38.138Z,60.64
2023-02-19T01:56:48.141Z,60.76
2023-02-19T01:56:58.120Z,60.81
2023-02-19T01:57:08.140Z,60.67
2023-02-19T01:57:18.133Z,60.56
2023-02-19T01:57:28.116Z,60.45
2023-02-19T01:57:38.149Z,60.39
2023-02-19T01:57:48.136Z,60.33
2023-02-19T01:57:58.141Z,60.19
2023-02-19T01:58:08.132Z,60.06
2023-02-19T01:58:18.130Z,60.00
2023-02-19T01:58:28.121Z,59.93
2023-02-19T01:58:38.131Z,59.88
2023-02-19T01:58:48.134Z,59.88
2023-02-19T01:58:58.153Z,60.01
2023-02-19T01:59:08.129Z,60.05
2023-02-19T01:59:18.137Z,60.00
2023-02-19T01:59:28.129Z,60.02
2023-02-19T01:59:38.114Z,60.00
2023-02-19T01:59:48.114Z,59.96
2023-02-19T01:59:58.198Z,59.91
2023-02-19T02:00:08.108Z,59.87
2023-02-19T02:00:18.110Z,59.85
2023-02-19T02:00:28.112Z,59.93
2023-02-19T02:00:38.136Z,59.92
2023-02-19T02:00:48.115Z,59.93
2023-02-19T02:00:58.159Z,60.08
2023-02-19T02:01:08.368Z,60.50
2023-02-19T02:01:18.117Z,60.86
2023-02-19T02:01:28.127Z,61.09
2023-02-19T02:01:38.177Z,61.28
2023-02-19T02:01:48.165Z,61.37
2023-02-19T02:01:58.153Z,61.39
2023-02-19T02:02:08.161Z,61.32
2023-02-19T02:02:18.133Z,61.29
2023-02-19T02:02:28.109Z,61.20
2023-02-19T02:02:38.100Z,61.37
2023-02-19T02:02:48.105Z,61.54
2023-02-19T02:02:58.105Z,61.69
2023-02-19T02:03:08.114Z,61.66
2023-02-19T02:03:18.121Z,61.61
2023-02-19T02:03:28.106Z,61.47
2023-02-19T02:03:38.131Z,61.44
2023-02-19T02:03:48.108Z,61.37
2023-02-19T02:03:58.110Z,61.28
2023-02-19T02:04:08.112Z,61.12
2023-02-19T02:04:18.099Z,61.12
2023-02-19T02:04:28.084Z,61.00
2023-02-19T02:04:38.091Z,60.97
2023-02-19T02:04:48.106Z,61.07
2023-02-19T02:04:58.109Z,61.15
2023-02-19T02:05:08.140Z,61.10
2023-02-19T02:05:18.081Z,61.04
2023-02-19T02:05:28.085Z,60.96
2023-02-19T02:05:38.098Z,60.86
2023-02-19T02:05:48.097Z,60.76
2023-02-19T02:05:58.109Z,60.88
2023-02-19T02:06:08.096Z,60.96
2023-02-19T02:06:18.096Z,60.90
2023-02-19T02:06:28.076Z,60.86
2023-02-19T02:06:38.105Z,60.94
2023-02-19T02:06:48.091Z,61.04
2023-02-19T02:06:58.107Z,61.06
2023-02-19T02:07:08.094Z,61.02
2023-02-19T02:07:18.098Z,60.93
2023-02-19T02:07:28.093Z,61.04
2023-02-19T02:07:38.104Z,61.12
2023-02-19T02:07:48.100Z,61.09
2023-02-19T02:07:58.087Z,60.96
2023-02-19T02:08:08.086Z,60.90
2023-02-19T02:08:18.097Z,60.89
2023-02-19T02:08:28.085Z,60.71
2023-02-19T02:08:38.102Z,60.70
2023-02-19T02:08:48.099Z,60.66